Time;durP1;ratioP1;P1;durP2;ratioP2;P2;SDS_P1;SDS_P2;PMS_P1;PMS_P2;Temp;Humidity;BMP_temperature;BMP_pressure;BME280_temperature;BME280_humidity;BME280_pressure;Samples;Min_cycle;Max_cycle;Signal;HPM_P1;HPM_P2
2023/10/02 00:03:39;;;;;;;9.00;7.20;;;;;;;;;;4986083;28;20222;-72
2023/10/02 00:06:07;;;;;;;9.77;7.38;;;;;;;;;;4944979;28;20218;-72
2023/10/02 00:08:39;;;;;;;9.73;7.85;;;;;;;;;;4951484;28;20273;-72
2023/10/02 00:11:41;;;;;;;10.18;7.65;;;;;;;;;;4967214;28;20218;-73
2023/10/02 00:17:03;;;;;;;8.75;7.25;;;;;;;;;;4966353;28;20230;-72
2023/10/02 00:19:43;;;;;;;11.07;7.85;;;;;;;;;;4951865;28;20229;-71
2023/10/02 00:22:34;;;;;;;9.10;7.38;;;;;;;;;;4962325;28;20285;-72
2023/10/02 00:24:58;;;;;;;9.00;7.30;;;;;;;;;;4973897;28;20277;-72
2023/10/02 00:27:28;;;;;;;11.63;7.72;;;;;;;;;;4966897;28;20241;-74
2023/10/02 00:30:00;;;;;;;11.25;8.57;;;;;;;;;;4967114;28;20313;-74
2023/10/02 00:32:40;;;;;;;8.50;7.53;;;;;;;;;;4961244;28;20656;-74
2023/10/02 00:35:06;;;;;;;9.88;7.93;;;;;;;;;;4963102;28;20214;-74
2023/10/02 00:37:43;;;;;;;12.93;8.32;;;;;;;;;;4965826;28;20237;-75
2023/10/02 00:40:39;;;;;;;13.80;7.85;;;;;;;;;;4942195;28;20712;-74
2023/10/02 00:45:58;;;;;;;12.50;7.85;;;;;;;;;;4960260;28;20302;-74
2023/10/02 00:48:30;;;;;;;8.52;7.22;;;;;;;;;;4975800;28;20244;-74
2023/10/02 00:51:05;;;;;;;10.65;7.60;;;;;;;;;;4966513;28;20199;-74
2023/10/02 00:53:39;;;;;;;9.77;7.38;;;;;;;;;;4966228;28;20226;-74
2023/10/02 00:56:24;;;;;;;9.18;7.30;;;;;;;;;;4966161;28;20227;-74
2023/10/02 00:58:55;;;;;;;8.88;7.00;;;;;;;;;;4967889;28;20234;-74
2023/10/02 01:01:22;;;;;;;10.75;7.60;;;;;;;;;;4964155;28;20222;-74
2023/10/02 01:06:33;;;;;;;11.77;7.57;;;;;;;;;;4966675;28;20619;-74
2023/10/02 01:09:00;;;;;;;7.47;6.75;;;;;;;;;;4968309;28;20214;-75
2023/10/02 01:11:25;;;;;;;10.20;7.30;;;;;;;;;;4943351;28;20218;-74
2023/10/02 01:13:53;;;;;;;9.30;7.20;;;;;;;;;;4967110;28;20225;-74
2023/10/02 01:16:20;;;;;;;7.97;6.75;;;;;;;;;;4951593;28;20225;-74
2023/10/02 01:18:52;;;;;;;9.10;7.45;;;;;;;;;;4967509;28;20224;-73
2023/10/02 01:21:20;;;;;;;8.32;6.57;;;;;;;;;;4949683;28;20218;-74
2023/10/02 01:24:06;;;;;;;9.75;6.20;;;;;;;;;;4953818;28;20708;-74
2023/10/02 01:26:37;;;;;;;6.38;5.78;;;;;;;;;;4952982;28;20257;-74
2023/10/02 01:29:06;;;;;;;8.77;6.15;;;;;;;;;;4966931;28;20298;-74
2023/10/02 01:31:35;;;;;;;10.43;7.05;;;;;;;;;;4947229;28;20266;-75
2023/10/02 01:34:02;;;;;;;10.85;7.82;;;;;;;;;;4954465;28;20252;-73
2023/10/02 01:36:35;;;;;;;11.18;7.35;;;;;;;;;;4970068;28;20265;-73
2023/10/02 01:39:10;;;;;;;8.95;7.32;;;;;;;;;;4962211;28;20222;-74
2023/10/02 01:41:52;;;;;;;10.57;7.68;;;;;;;;;;4975808;28;20268;-74
2023/10/02 01:44:24;;;;;;;13.50;8.02;;;;;;;;;;4963636;28;20249;-74
2023/10/02 01:46:55;;;;;;;7.53;6.82;;;;;;;;;;4970156;28;20266;-73
2023/10/02 01:49:27;;;;;;;10.55;7.60;;;;;;;;;;4976552;28;20283;-74
2023/10/02 01:51:58;;;;;;;12.40;8.18;;;;;;;;;;4947623;28;20249;-74
2023/10/02 01:54:29;;;;;;;9.45;7.43;;;;;;;;;;4973547;28;20321;-74
2023/10/02 01:56:56;;;;;;;13.68;7.47;;;;;;;;;;4964793;28;20219;-73
2023/10/02 01:59:24;;;;;;;8.68;7.03;;;;;;;;;;4949755;28;20221;-74
2023/10/02 02:01:54;;;;;;;10.20;7.35;;;;;;;;;;4964570;28;20244;-74
2023/10/02 02:04:20;;;;;;;10.88;7.05;;;;;;;;;;4970481;28;20236;-74
2023/10/02 02:06:52;;;;;;;10.52;6.38;;;;;;;;;;4991514;28;20700;-74
2023/10/02 02:09:23;;;;;;;9.93;6.85;;;;;;;;;;4986062;28;20222;-74
2023/10/02 02:12:10;;;;;;;9.13;7.07;;;;;;;;;;4947795;28;20219;-74
2023/10/02 02:14:41;;;;;;;9.32;6.97;;;;;;;;;;4958514;28;20256;-74
2023/10/02 02:17:10;;;;;;;9.07;7.53;;;;;;;;;;4994315;28;20258;-74
2023/10/02 02:19:47;;;;;;;8.45;7.10;;;;;;;;;;4983568;28;20221;-74
2023/10/02 02:22:25;;;;;;;13.88;7.65;;;;;;;;;;4971605;28;20222;-74
2023/10/02 02:24:51;;;;;;;8.68;7.05;;;;;;;;;;4994897;28;20233;-75
2023/10/02 02:27:19;;;;;;;12.45;7.85;;;;;;;;;;4979504;28;20218;-74
2023/10/02 02:29:56;;;;;;;8.70;6.90;;;;;;;;;;4976024;28;20831;-74
2023/10/02 02:32:36;;;;;;;8.85;6.97;;;;;;;;;;4978442;28;20218;-74
2023/10/02 02:35:09;;;;;;;11.90;7.35;;;;;;;;;;4967885;28;20223;-75
2023/10/02 02:37:35;;;;;;;9.10;7.07;;;;;;;;;;4968630;28;20226;-73
2023/10/02 02:40:22;;;;;;;9.10;7.10;;;;;;;;;;4961033;28;20219;-74
2023/10/02 02:42:51;;;;;;;8.00;6.55;;;;;;;;;;4957951;28;20281;-74
2023/10/02 02:45:30;;;;;;;8.82;7.53;;;;;;;;;;4984761;28;20219;-74
2023/10/02 02:48:03;;;;;;;7.90;6.95;;;;;;;;;;4968633;28;20230;-74
2023/10/02 02:50:42;;;;;;;9.95;7.50;;;;;;;;;;4970908;28;20234;-74
2023/10/02 02:56:24;;;;;;;8.13;7.32;;;;;;;;;;4958820;28;20313;-74
2023/10/02 02:58:55;;;;;;;7.72;6.85;;;;;;;;;;4973211;28;20640;-74
2023/10/02 03:01:24;;;;;;;10.48;7.15;;;;;;;;;;4952986;28;20231;-74
2023/10/02 03:03:55;;;;;;;8.50;6.68;;;;;;;;;;4977766;28;20779;-74
2023/10/02 03:06:24;;;;;;;9.68;7.13;;;;;;;;;;4970047;28;20222;-74
2023/10/02 03:08:57;;;;;;;8.63;6.63;;;;;;;;;;4963008;28;20226;-75
2023/10/02 03:11:32;;;;;;;8.93;7.10;;;;;;;;;;4968087;28;20231;-74
2023/10/02 03:14:16;;;;;;;8.32;7.03;;;;;;;;;;4978579;28;20213;-74
2023/10/02 03:16:45;;;;;;;13.55;6.80;;;;;;;;;;4996185;28;20226;-74
2023/10/02 03:19:13;;;;;;;7.63;6.82;;;;;;;;;;4957012;28;20201;-74
2023/10/02 03:21:42;;;;;;;9.10;7.10;;;;;;;;;;4964779;28;20252;-73
2023/10/02 03:24:07;;;;;;;7.65;6.68;;;;;;;;;;4972635;28;20225;-73
2023/10/02 03:29:21;;;;;;;8.38;7.43;;;;;;;;;;4996306;28;20231;-73
2023/10/02 03:31:49;;;;;;;7.43;6.53;;;;;;;;;;4975028;28;20217;-73
2023/10/02 03:42:25;;;;;;;14.60;8.75;;;;;;;;;;4975303;28;20221;-73
2023/10/02 03:44:57;;;;;;;11.23;8.20;;;;;;;;;;4963554;28;20234;-73
2023/10/02 03:47:30;;;;;;;10.30;7.63;;;;;;;;;;4974445;28;20218;-72
2023/10/02 03:50:04;;;;;;;10.73;7.72;;;;;;;;;;4969593;28;20716;-73
2023/10/02 03:52:32;;;;;;;10.75;7.63;;;;;;;;;;4960892;28;20755;-73
2023/10/02 03:55:02;;;;;;;9.55;8.02;;;;;;;;;;4978226;28;20221;-73
2023/10/02 04:06:47;;;;;;;8.68;7.72;;;;;;;;;;4958316;28;20226;-74
2023/10/02 04:11:46;;;;;;;8.82;7.93;;;;;;;;;;4948526;28;20261;-74
2023/10/02 04:14:31;;;;;;;10.35;8.18;;;;;;;;;;4949493;28;20217;-73
2023/10/02 04:19:51;;;;;;;10.52;7.93;;;;;;;;;;4973294;28;20598;-74
2023/10/02 04:22:22;;;;;;;11.93;8.50;;;;;;;;;;4974479;28;20219;-74
2023/10/02 04:25:04;;;;;;;8.73;7.50;;;;;;;;;;4975453;28;20703;-74
2023/10/02 04:28:00;;;;;;;9.43;8.40;;;;;;;;;;4959978;28;20222;-74
2023/10/02 04:30:24;;;;;;;10.07;7.88;;;;;;;;;;4961930;28;20214;-74
2023/10/02 04:32:59;;;;;;;10.60;8.38;;;;;;;;;;4967797;28;20218;-74
2023/10/02 04:35:46;;;;;;;9.98;8.00;;;;;;;;;;4974246;28;20218;-73
2023/10/02 04:38:14;;;;;;;9.65;7.90;;;;;;;;;;4951832;28;20610;-74
2023/10/02 04:40:49;;;;;;;9.90;8.52;;;;;;;;;;4958687;28;20222;-73
2023/10/02 04:45:47;;;;;;;10.60;8.38;;;;;;;;;;4961135;28;20594;-73
2023/10/02 04:48:17;;;;;;;9.23;7.90;;;;;;;;;;4959461;28;20283;-73
2023/10/02 04:50:45;;;;;;;10.18;8.10;;;;;;;;;;4968341;28;20229;-73
2023/10/02 04:55:43;;;;;;;11.68;8.45;;;;;;;;;;4957897;28;20622;-74
2023/10/02 04:58:20;;;;;;;13.15;8.27;;;;;;;;;;4967483;28;20279;-74
2023/10/02 05:03:32;;;;;;;8.20;7.00;;;;;;;;;;4982109;28;20547;-74
2023/10/02 05:06:00;;;;;;;11.20;7.95;;;;;;;;;;4967576;28;20225;-73
2023/10/02 05:09:11;;;;;;;9.30;8.35;;;;;;;;;;4959361;28;20685;-74
2023/10/02 05:14:14;;;;;;;9.75;8.20;;;;;;;;;;4958364;28;20221;-74
2023/10/02 05:16:42;;;;;;;9.05;7.95;;;;;;;;;;4961209;28;20228;-74
2023/10/02 05:19:08;;;;;;;8.85;7.95;;;;;;;;;;4966766;28;20245;-74
2023/10/02 05:21:49;;;;;;;11.00;8.50;;;;;;;;;;4978571;28;20234;-74
2023/10/02 05:24:18;;;;;;;9.15;7.85;;;;;;;;;;4961533;28;20276;-74
2023/10/02 05:26:44;;;;;;;20.08;8.23;;;;;;;;;;4977994;28;20221;-73
2023/10/02 05:29:12;;;;;;;10.55;7.45;;;;;;;;;;4954567;28;20787;-74
2023/10/02 05:31:43;;;;;;;8.65;7.80;;;;;;;;;;4974689;28;20677;-74
2023/10/02 05:34:09;;;;;;;10.63;8.18;;;;;;;;;;4966309;28;20309;-74
2023/10/02 05:36:54;;;;;;;9.23;7.75;;;;;;;;;;4961247;28;20235;-74
2023/10/02 05:39:39;;;;;;;11.45;7.68;;;;;;;;;;4973933;28;20224;-74
2023/10/02 05:42:14;;;;;;;14.15;8.80;;;;;;;;;;4965048;28;20730;-75
2023/10/02 05:44:41;;;;;;;10.73;8.00;;;;;;;;;;4958789;28;20230;-74
2023/10/02 05:47:07;;;;;;;13.82;8.43;;;;;;;;;;4961427;28;20218;-74
2023/10/02 05:49:48;;;;;;;9.57;8.07;;;;;;;;;;4977924;28;20276;-75
2023/10/02 05:52:19;;;;;;;9.15;7.95;;;;;;;;;;4978599;28;20217;-74
2023/10/02 05:54:53;;;;;;;10.13;8.00;;;;;;;;;;4961990;28;20305;-74
2023/10/02 05:57:19;;;;;;;10.57;8.27;;;;;;;;;;4964959;28;20238;-74
2023/10/02 05:59:48;;;;;;;11.10;8.23;;;;;;;;;;4969556;28;20219;-74
2023/10/02 06:02:22;;;;;;;15.55;9.00;;;;;;;;;;4970845;28;20224;-74
2023/10/02 06:04:53;;;;;;;10.73;8.68;;;;;;;;;;4971022;28;20226;-74
2023/10/02 06:10:28;;;;;;;12.63;9.75;;;;;;;;;;4964282;28;20278;-74
2023/10/02 06:13:05;;;;;;;14.20;9.32;;;;;;;;;;4969328;28;20272;-74
2023/10/02 06:15:46;;;;;;;13.43;8.10;;;;;;;;;;4948434;28;20305;-74
2023/10/02 06:18:24;;;;;;;11.70;9.30;;;;;;;;;;4970160;28;20309;-74
2023/10/02 06:21:00;;;;;;;12.25;10.82;;;;;;;;;;4971218;28;20327;-74
2023/10/02 06:23:37;;;;;;;15.95;12.98;;;;;;;;;;4962927;28;20218;-74
2023/10/02 06:26:11;;;;;;;18.77;13.95;;;;;;;;;;4961145;28;20695;-74
2023/10/02 06:28:41;;;;;;;11.88;9.52;;;;;;;;;;4953629;28;20223;-73
2023/10/02 06:31:08;;;;;;;9.60;8.55;;;;;;;;;;4953359;28;20218;-74
2023/10/02 06:33:38;;;;;;;10.70;8.38;;;;;;;;;;4978177;28;20226;-74
2023/10/02 06:36:05;;;;;;;10.35;8.25;;;;;;;;;;4961485;28;20309;-74
2023/10/02 06:38:31;;;;;;;16.13;8.50;;;;;;;;;;4964677;28;20352;-74
2023/10/02 06:41:07;;;;;;;11.95;8.95;;;;;;;;;;4969985;28;20249;-73
2023/10/02 06:43:33;;;;;;;9.45;8.45;;;;;;;;;;4953326;28;20234;-74
2023/10/02 06:46:09;;;;;;;11.80;9.20;;;;;;;;;;4970628;28;20225;-73
2023/10/02 06:48:35;;;;;;;13.68;10.25;;;;;;;;;;4952896;28;20415;-74
2023/10/02 06:51:07;;;;;;;13.13;11.07;;;;;;;;;;4962640;28;20217;-74
2023/10/02 06:53:40;;;;;;;14.77;10.27;;;;;;;;;;4963320;28;20250;-73
2023/10/02 06:56:11;;;;;;;12.35;9.38;;;;;;;;;;4946680;28;20226;-75
2023/10/02 06:58:56;;;;;;;11.57;8.88;;;;;;;;;;4967584;28;20321;-74
2023/10/02 07:01:27;;;;;;;12.30;9.40;;;;;;;;;;4965506;28;20249;-74
2023/10/02 07:04:08;;;;;;;14.82;10.40;;;;;;;;;;4976815;28;20229;-75
2023/10/02 07:06:38;;;;;;;9.55;8.55;;;;;;;;;;4965606;28;20225;-74
2023/10/02 07:09:10;;;;;;;11.68;8.68;;;;;;;;;;4968460;28;21898;-74
2023/10/02 07:11:42;;;;;;;12.85;8.30;;;;;;;;;;4960060;28;20281;-74
2023/10/02 07:14:11;;;;;;;10.25;8.65;;;;;;;;;;4978862;28;20270;-74
2023/10/02 07:16:41;;;;;;;9.25;8.35;;;;;;;;;;4978816;28;20318;-74
2023/10/02 07:19:09;;;;;;;10.23;8.60;;;;;;;;;;4950517;28;20246;-74
2023/10/02 07:21:40;;;;;;;11.13;8.80;;;;;;;;;;4975533;28;20236;-74
2023/10/02 07:24:25;;;;;;;10.35;8.27;;;;;;;;;;4980617;28;20319;-74
2023/10/02 07:26:53;;;;;;;11.98;8.45;;;;;;;;;;4955203;28;20236;-74
2023/10/02 07:29:37;;;;;;;10.27;8.40;;;;;;;;;;4961929;28;20250;-74
2023/10/02 07:32:06;;;;;;;11.40;8.90;;;;;;;;;;4967629;28;20235;-74
2023/10/02 07:34:34;;;;;;;11.07;8.90;;;;;;;;;;4977117;28;20225;-73
2023/10/02 07:36:59;;;;;;;13.70;9.85;;;;;;;;;;4976633;28;20239;-74
2023/10/02 07:39:36;;;;;;;10.00;8.88;;;;;;;;;;4965772;28;20567;-73
2023/10/02 07:42:04;;;;;;;9.98;7.80;;;;;;;;;;4963002;28;20305;-74
2023/10/02 07:44:37;;;;;;;12.10;8.95;;;;;;;;;;4970175;28;20234;-74
2023/10/02 07:47:10;;;;;;;10.23;8.60;;;;;;;;;;4968907;28;20287;-74
2023/10/02 07:49:39;;;;;;;10.23;8.48;;;;;;;;;;4963367;28;20230;-73
2023/10/02 07:52:11;;;;;;;14.20;8.55;;;;;;;;;;4981167;28;20310;-74
2023/10/02 07:54:48;;;;;;;11.93;8.70;;;;;;;;;;4995133;28;20230;-73
2023/10/02 07:57:18;;;;;;;12.05;8.10;;;;;;;;;;4967248;28;20273;-73
2023/10/02 07:59:47;;;;;;;11.95;8.40;;;;;;;;;;4960524;28;20837;-74
2023/10/02 08:02:22;;;;;;;11.18;8.43;;;;;;;;;;4943902;28;20273;-74
2023/10/02 08:04:51;;;;;;;10.90;8.70;;;;;;;;;;4962402;28;20217;-73
2023/10/02 08:07:19;;;;;;;13.70;8.30;;;;;;;;;;4966743;28;20223;-73
2023/10/02 08:09:48;;;;;;;10.40;8.38;;;;;;;;;;4963302;28;20297;-73
2023/10/02 08:12:30;;;;;;;14.25;8.60;;;;;;;;;;4965859;28;20217;-74
2023/10/02 08:15:32;;;;;;;12.25;8.52;;;;;;;;;;4967409;28;20230;-74
2023/10/02 08:20:34;;;;;;;12.82;9.23;;;;;;;;;;4974776;28;20646;-74
2023/10/02 08:23:03;;;;;;;12.00;8.20;;;;;;;;;;4977034;28;20308;-73
2023/10/02 08:25:29;;;;;;;10.02;7.88;;;;;;;;;;4952185;28;20229;-74
2023/10/02 08:27:58;;;;;;;10.10;8.02;;;;;;;;;;4966020;28;20238;-73
2023/10/02 08:30:36;;;;;;;8.60;7.40;;;;;;;;;;4966295;28;20227;-73
2023/10/02 08:33:07;;;;;;;10.80;7.78;;;;;;;;;;4974139;28;20233;-73
2023/10/02 08:35:41;;;;;;;9.68;7.95;;;;;;;;;;4968243;28;20214;-73
2023/10/02 08:38:21;;;;;;;11.23;8.20;;;;;;;;;;4970406;28;20240;-73
2023/10/02 08:41:02;;;;;;;10.18;7.85;;;;;;;;;;4972404;28;20230;-74
2023/10/02 08:43:43;;;;;;;11.55;8.68;;;;;;;;;;4991239;28;20716;-74
2023/10/02 08:46:19;;;;;;;11.05;8.05;;;;;;;;;;4966012;28;20265;-74
2023/10/02 08:48:55;;;;;;;13.05;8.48;;;;;;;;;;4968049;28;20229;-74
2023/10/02 08:51:30;;;;;;;10.85;7.50;;;;;;;;;;4975425;28;20237;-73
2023/10/02 08:54:05;;;;;;;12.52;7.90;;;;;;;;;;4978708;28;20222;-73
2023/10/02 08:56:43;;;;;;;10.15;7.63;;;;;;;;;;4963325;28;20707;-73
2023/10/02 08:59:19;;;;;;;11.18;7.93;;;;;;;;;;4970095;28;20977;-74
2023/10/02 09:01:47;;;;;;;13.27;8.88;;;;;;;;;;4976220;28;20226;-74
2023/10/02 09:04:22;;;;;;;9.95;8.02;;;;;;;;;;4941145;28;20246;-74
2023/10/02 09:06:50;;;;;;;11.27;7.68;;;;;;;;;;4961594;28;20257;-73
2023/10/02 09:11:52;;;;;;;8.60;7.70;;;;;;;;;;4973986;28;20237;-74
2023/10/02 09:17:07;;;;;;;11.52;7.95;;;;;;;;;;4960777;28;20234;-74
2023/10/02 09:19:37;;;;;;;10.73;8.23;;;;;;;;;;4959307;28;20226;-74
2023/10/02 09:22:10;;;;;;;12.07;7.43;;;;;;;;;;4974450;28;20318;-75
2023/10/02 09:24:37;;;;;;;11.82;8.32;;;;;;;;;;4966208;28;20233;-74
2023/10/02 09:27:23;;;;;;;10.02;7.35;;;;;;;;;;4975959;28;20727;-73
2023/10/02 09:32:49;;;;;;;10.68;7.85;;;;;;;;;;4967187;28;20227;-73
2023/10/02 09:35:22;;;;;;;10.98;7.53;;;;;;;;;;4975304;28;20214;-74
2023/10/02 09:37:56;;;;;;;9.48;8.18;;;;;;;;;;4958581;28;20245;-74
2023/10/02 09:43:33;;;;;;;14.10;8.20;;;;;;;;;;4973869;28;20228;-74
2023/10/02 09:49:07;;;;;;;10.07;8.05;;;;;;;;;;4959755;28;20238;-74
2023/10/02 09:52:09;;;;;;;12.90;8.85;;;;;;;;;;4967396;28;20229;-75
2023/10/02 09:54:46;;;;;;;12.68;8.32;;;;;;;;;;4971527;28;20374;-74
2023/10/02 09:57:17;;;;;;;11.50;7.93;;;;;;;;;;4951980;28;20236;-74
2023/10/02 09:59:48;;;;;;;10.38;8.05;;;;;;;;;;4967244;28;20234;-73
2023/10/02 10:05:02;;;;;;;13.20;9.02;;;;;;;;;;4974554;28;20233;-74
2023/10/02 10:07:52;;;;;;;9.32;7.70;;;;;;;;;;4940224;28;20665;-74
2023/10/02 10:10:48;;;;;;;10.40;7.82;;;;;;;;;;4959206;28;20225;-74
2023/10/02 10:13:37;;;;;;;11.13;7.90;;;;;;;;;;4975283;28;20221;-74
2023/10/02 10:16:21;;;;;;;10.88;8.10;;;;;;;;;;4960989;28;20322;-74
2023/10/02 10:21:57;;;;;;;10.70;8.73;;;;;;;;;;4959849;28;20227;-73
2023/10/02 10:24:31;;;;;;;11.32;8.40;;;;;;;;;;4974602;28;20233;-74
2023/10/02 10:27:00;;;;;;;9.00;7.90;;;;;;;;;;4962448;28;20230;-75
2023/10/02 10:29:41;;;;;;;12.02;8.25;;;;;;;;;;4959350;28;20285;-74
2023/10/02 10:32:18;;;;;;;11.90;8.30;;;;;;;;;;4974395;28;20600;-75
2023/10/02 10:35:12;;;;;;;9.02;7.88;;;;;;;;;;4975468;28;20269;-75
2023/10/02 10:37:42;;;;;;;10.63;7.28;;;;;;;;;;4969616;28;20727;-75
2023/10/02 10:40:43;;;;;;;11.20;7.75;;;;;;;;;;4970234;28;20231;-74
2023/10/02 10:42:59;;;;;;;12.38;8.40;;;;;;;;;;4965630;28;20233;-73
2023/10/02 10:45:29;;;;;;;10.20;8.32;;;;;;;;;;4927081;28;20498;-73
2023/10/02 10:47:58;;;;;;;11.52;8.20;;;;;;;;;;4954773;28;20667;-72
2023/10/02 10:50:29;;;;;;;10.57;8.23;;;;;;;;;;4979930;28;20227;-74
2023/10/02 10:53:26;;;;;;;11.57;8.20;;;;;;;;;;4954142;28;20234;-74
2023/10/02 10:55:47;;;;;;;12.32;8.73;;;;;;;;;;4979769;28;20233;-73
2023/10/02 10:58:29;;;;;;;12.93;8.50;;;;;;;;;;4968171;28;20226;-74
2023/10/02 11:00:58;;;;;;;11.93;8.13;;;;;;;;;;4970085;28;20221;-74
2023/10/02 11:03:26;;;;;;;11.98;8.32;;;;;;;;;;4978078;28;20235;-73
2023/10/02 11:05:52;;;;;;;9.07;8.15;;;;;;;;;;4980246;28;20237;-74
2023/10/02 11:08:25;;;;;;;12.85;7.97;;;;;;;;;;4979950;28;20239;-75
2023/10/02 11:11:24;;;;;;;10.48;7.95;;;;;;;;;;4969136;28;20223;-74
2023/10/02 11:13:55;;;;;;;11.88;7.75;;;;;;;;;;4962277;28;20662;-73
2023/10/02 11:16:48;;;;;;;8.70;7.18;;;;;;;;;;4974893;28;20756;-74
2023/10/02 11:19:25;;;;;;;9.77;8.02;;;;;;;;;;4963180;28;20624;-74
2023/10/02 11:22:15;;;;;;;11.52;8.20;;;;;;;;;;4962301;28;20222;-74
2023/10/02 11:24:45;;;;;;;10.13;8.00;;;;;;;;;;4979932;28;20657;-73
2023/10/02 11:27:15;;;;;;;10.25;8.05;;;;;;;;;;4932866;28;20307;-74
2023/10/02 11:29:45;;;;;;;13.23;8.23;;;;;;;;;;4968403;28;20231;-75
2023/10/02 11:32:19;;;;;;;9.65;7.93;;;;;;;;;;4969128;28;20223;-74
2023/10/02 11:34:59;;;;;;;10.18;8.00;;;;;;;;;;4976066;28;20233;-73
2023/10/02 11:37:26;;;;;;;13.20;7.78;;;;;;;;;;4953350;28;20333;-74
2023/10/02 11:39:55;;;;;;;12.10;9.10;;;;;;;;;;4964883;28;20913;-73
2023/10/02 11:42:22;;;;;;;11.32;8.10;;;;;;;;;;4974148;28;20214;-73
2023/10/02 11:44:50;;;;;;;10.00;7.53;;;;;;;;;;4953436;28;20245;-73
2023/10/02 11:47:16;;;;;;;11.00;8.30;;;;;;;;;;4968912;28;20280;-74
2023/10/02 11:49:42;;;;;;;14.18;8.38;;;;;;;;;;4968712;28;20732;-73
2023/10/02 11:52:07;;;;;;;9.15;7.75;;;;;;;;;;4966876;28;20230;-73
2023/10/02 11:54:42;;;;;;;11.05;7.80;;;;;;;;;;4975763;28;20226;-74
2023/10/02 11:57:12;;;;;;;10.05;7.93;;;;;;;;;;4968259;28;20294;-74
2023/10/02 11:59:50;;;;;;;12.00;8.00;;;;;;;;;;4976827;28;20237;-74
2023/10/02 12:02:17;;;;;;;10.52;7.78;;;;;;;;;;4962439;28;20714;-74
2023/10/02 12:04:52;;;;;;;10.80;7.70;;;;;;;;;;4979692;28;20225;-74
2023/10/02 12:07:20;;;;;;;11.60;8.32;;;;;;;;;;4972699;28;20673;-73
2023/10/02 12:09:48;;;;;;;13.13;7.50;;;;;;;;;;4950130;28;20780;-74
2023/10/02 12:12:14;;;;;;;11.32;7.78;;;;;;;;;;4946675;28;20237;-73
2023/10/02 12:14:44;;;;;;;9.77;7.93;;;;;;;;;;4972539;28;20688;-73
2023/10/02 12:17:11;;;;;;;10.35;7.70;;;;;;;;;;4964192;28;20305;-74
2023/10/02 12:19:40;;;;;;;10.43;8.18;;;;;;;;;;4959156;28;20237;-74
2023/10/02 12:22:10;;;;;;;12.50;8.80;;;;;;;;;;4996409;28;20219;-74
2023/10/02 12:24:41;;;;;;;10.85;8.25;;;;;;;;;;4977685;28;20229;-73
2023/10/02 12:27:11;;;;;;;10.50;7.50;;;;;;;;;;4977108;28;20226;-74
2023/10/02 12:29:42;;;;;;;11.38;8.07;;;;;;;;;;4986671;28;20817;-74
2023/10/02 12:32:09;;;;;;;11.93;8.77;;;;;;;;;;4977651;28;20308;-74
2023/10/02 12:34:40;;;;;;;9.23;7.35;;;;;;;;;;4979747;28;20767;-74
2023/10/02 12:37:05;;;;;;;9.63;7.25;;;;;;;;;;4963705;28;20230;-74
2023/10/02 12:39:31;;;;;;;8.98;7.70;;;;;;;;;;4968215;28;20575;-73
2023/10/02 12:41:59;;;;;;;12.13;7.60;;;;;;;;;;4964448;28;20235;-73
2023/10/02 12:44:30;;;;;;;9.27;7.88;;;;;;;;;;4976653;28;20249;-74
2023/10/02 12:46:56;;;;;;;14.32;7.97;;;;;;;;;;4985485;28;20229;-74
2023/10/02 12:49:27;;;;;;;10.77;8.23;;;;;;;;;;4953741;28;20313;-73
2023/10/02 12:51:55;;;;;;;15.68;8.60;;;;;;;;;;4980313;28;20316;-73
2023/10/02 12:54:20;;;;;;;10.60;7.85;;;;;;;;;;4980820;28;20221;-74
2023/10/02 12:56:46;;;;;;;9.90;7.75;;;;;;;;;;4977163;28;20238;-73
2023/10/02 12:59:14;;;;;;;9.65;7.60;;;;;;;;;;4982387;28;20232;-73
2023/10/02 13:01:40;;;;;;;9.35;7.32;;;;;;;;;;4955898;28;20706;-73
2023/10/02 13:04:08;;;;;;;11.27;8.23;;;;;;;;;;4986085;28;20708;-73
2023/10/02 13:06:36;;;;;;;14.45;8.02;;;;;;;;;;4993800;28;20229;-74
2023/10/02 13:09:10;;;;;;;11.63;7.65;;;;;;;;;;4991400;28;20249;-73
2023/10/02 13:11:44;;;;;;;12.45;7.97;;;;;;;;;;4985691;28;20218;-73
2023/10/02 13:14:13;;;;;;;9.15;7.88;;;;;;;;;;4987843;28;20227;-73
2023/10/02 13:16:43;;;;;;;10.95;7.75;;;;;;;;;;4968008;28;20583;-74
2023/10/02 13:19:12;;;;;;;12.50;8.88;;;;;;;;;;4962153;28;20218;-73
2023/10/02 13:21:38;;;;;;;11.20;8.30;;;;;;;;;;4983457;28;20222;-73
2023/10/02 13:24:07;;;;;;;11.18;8.05;;;;;;;;;;4983672;28;20214;-73
2023/10/02 13:26:36;;;;;;;10.00;8.07;;;;;;;;;;4943927;28;20234;-73
2023/10/02 13:29:02;;;;;;;8.82;7.47;;;;;;;;;;4962363;28;20285;-72
2023/10/02 13:31:30;;;;;;;11.48;7.97;;;;;;;;;;4967097;28;20214;-73
2023/10/02 13:34:03;;;;;;;9.93;8.00;;;;;;;;;;4973060;28;20715;-73
2023/10/02 13:36:33;;;;;;;13.27;8.18;;;;;;;;;;4978595;28;20786;-74
2023/10/02 13:39:04;;;;;;;9.80;7.38;;;;;;;;;;4981211;28;20226;-73
2023/10/02 13:41:30;;;;;;;11.45;8.02;;;;;;;;;;4968941;28;20221;-73
2023/10/02 13:43:59;;;;;;;9.43;7.80;;;;;;;;;;4957075;28;20226;-72
2023/10/02 13:46:25;;;;;;;10.95;7.70;;;;;;;;;;4977051;28;20237;-74
2023/10/02 13:48:53;;;;;;;8.80;7.45;;;;;;;;;;4973082;28;20222;-73
2023/10/02 13:51:23;;;;;;;11.50;8.25;;;;;;;;;;4971857;28;20321;-73
2023/10/02 13:53:53;;;;;;;8.00;7.20;;;;;;;;;;4968290;28;20234;-72
2023/10/02 13:56:25;;;;;;;11.48;8.13;;;;;;;;;;4967587;28;20294;-73
2023/10/02 13:58:51;;;;;;;8.00;7.18;;;;;;;;;;4971402;28;20223;-73
2023/10/02 14:01:24;;;;;;;11.38;7.82;;;;;;;;;;4973713;28;20225;-72
2023/10/02 14:03:51;;;;;;;10.38;8.05;;;;;;;;;;4959603;28;20309;-72
2023/10/02 14:06:21;;;;;;;10.23;7.45;;;;;;;;;;4973650;28;20703;-73
2023/10/02 14:08:47;;;;;;;10.35;8.02;;;;;;;;;;4966660;28;20222;-73
2023/10/02 14:11:19;;;;;;;10.02;8.05;;;;;;;;;;4955253;28;20218;-73
2023/10/02 14:13:48;;;;;;;11.05;7.82;;;;;;;;;;4970614;28;20284;-73
2023/10/02 14:16:15;;;;;;;11.13;8.30;;;;;;;;;;4976611;28;20913;-72
2023/10/02 14:18:43;;;;;;;9.55;7.88;;;;;;;;;;4945752;28;20272;-73
2023/10/02 14:21:13;;;;;;;11.68;8.60;;;;;;;;;;4969061;28;20234;-73
2023/10/02 14:23:44;;;;;;;12.65;8.15;;;;;;;;;;4963339;28;20226;-75
2023/10/02 14:26:11;;;;;;;13.25;8.40;;;;;;;;;;4971015;28;20229;-75
2023/10/02 14:28:39;;;;;;;14.13;8.63;;;;;;;;;;4961646;28;20587;-74
2023/10/02 14:31:12;;;;;;;11.35;8.20;;;;;;;;;;4967570;28;20236;-74
2023/10/02 14:33:40;;;;;;;12.73;9.38;;;;;;;;;;4934888;28;20293;-74
2023/10/02 14:36:06;;;;;;;14.55;11.50;;;;;;;;;;4977582;28;20894;-74
2023/10/02 14:38:32;;;;;;;14.15;9.82;;;;;;;;;;4964119;28;20218;-74
2023/10/02 14:41:00;;;;;;;12.38;9.20;;;;;;;;;;4970740;28;20214;-74
2023/10/02 14:43:25;;;;;;;11.98;8.32;;;;;;;;;;4957874;28;20696;-74
2023/10/02 14:45:57;;;;;;;10.88;7.93;;;;;;;;;;4969468;28;20222;-74
2023/10/02 14:48:24;;;;;;;9.18;7.88;;;;;;;;;;4986919;28;20236;-73
2023/10/02 14:50:54;;;;;;;11.40;8.10;;;;;;;;;;4971594;28;20226;-74
2023/10/02 14:53:20;;;;;;;13.15;8.38;;;;;;;;;;4961964;28;20222;-74
2023/10/02 14:55:46;;;;;;;9.68;7.78;;;;;;;;;;4978641;28;20241;-74
2023/10/02 14:58:14;;;;;;;10.05;7.88;;;;;;;;;;4965058;28;20260;-74
2023/10/02 15:00:40;;;;;;;10.40;7.60;;;;;;;;;;4978761;28;20226;-74
2023/10/02 15:03:05;;;;;;;9.93;7.70;;;;;;;;;;4979258;28;20676;-75
2023/10/02 15:05:33;;;;;;;16.17;9.15;;;;;;;;;;4952068;28;20233;-73
2023/10/02 15:08:01;;;;;;;13.45;8.50;;;;;;;;;;4960793;28;20314;-74
2023/10/02 15:10:31;;;;;;;11.85;8.05;;;;;;;;;;4995558;28;20258;-72
2023/10/02 15:13:00;;;;;;;10.82;8.40;;;;;;;;;;4953902;28;20771;-73
2023/10/02 15:15:28;;;;;;;10.05;8.40;;;;;;;;;;4961108;28;20214;-74
2023/10/02 15:17:58;;;;;;;12.05;8.60;;;;;;;;;;4969024;28;20258;-74
2023/10/02 15:20:25;;;;;;;11.07;8.38;;;;;;;;;;4953420;28;20225;-73
2023/10/02 15:22:56;;;;;;;17.98;8.73;;;;;;;;;;4968820;28;20243;-73
2023/10/02 15:25:22;;;;;;;14.45;8.20;;;;;;;;;;4968523;28;20230;-73
2023/10/02 15:27:52;;;;;;;17.05;8.82;;;;;;;;;;4969974;28;20234;-74
2023/10/02 15:30:23;;;;;;;11.82;7.90;;;;;;;;;;4968208;28;20218;-73
2023/10/02 15:32:50;;;;;;;12.07;8.07;;;;;;;;;;4947581;28;20226;-74
2023/10/02 15:35:19;;;;;;;12.70;8.25;;;;;;;;;;4966727;28;20648;-74
2023/10/02 15:38:00;;;;;;;11.63;8.48;;;;;;;;;;4982236;28;20234;-74
2023/10/02 15:40:26;;;;;;;12.45;8.60;;;;;;;;;;4975022;28;20219;-73
2023/10/02 15:42:55;;;;;;;11.88;8.48;;;;;;;;;;4956309;28;20288;-74
2023/10/02 15:45:26;;;;;;;12.77;8.60;;;;;;;;;;4984997;28;20229;-73
2023/10/02 15:47:55;;;;;;;12.82;7.97;;;;;;;;;;4975948;28;20724;-74
2023/10/02 15:50:28;;;;;;;12.45;8.73;;;;;;;;;;4968139;28;20223;-73
2023/10/02 15:52:54;;;;;;;12.32;8.68;;;;;;;;;;4967712;28;20258;-74
2023/10/02 15:55:20;;;;;;;12.82;8.68;;;;;;;;;;4991655;28;20227;-73
2023/10/02 15:57:48;;;;;;;11.35;8.20;;;;;;;;;;4967250;28;20232;-73
2023/10/02 16:00:21;;;;;;;13.65;8.77;;;;;;;;;;4976529;28;20211;-74
2023/10/02 16:02:56;;;;;;;11.20;8.18;;;;;;;;;;4950195;28;20210;-74
2023/10/02 16:05:22;;;;;;;13.82;8.05;;;;;;;;;;4990014;28;20297;-73
2023/10/02 16:07:51;;;;;;;10.93;8.68;;;;;;;;;;4963792;28;20222;-74
2023/10/02 16:10:18;;;;;;;17.30;8.52;;;;;;;;;;4960806;28;20222;-74
2023/10/02 16:12:46;;;;;;;10.38;8.35;;;;;;;;;;4968776;28;20680;-73
2023/10/02 16:15:23;;;;;;;12.57;8.85;;;;;;;;;;4968892;28;20358;-73
2023/10/02 16:17:54;;;;;;;11.52;8.10;;;;;;;;;;4970088;28;20764;-74